Time;durP1;ratioP1;P1;durP2;ratioP2;P2;SDS_P1;SDS_P2;PMS_P1;PMS_P2;Temp;Humidity;BMP_temperature;BMP_pressure;BME280_temperature;BME280_humidity;BME280_pressure;Samples;Min_cycle;Max_cycle;Signal;HPM_P1;HPM_P2
2024/01/15 00:02:39;;;;;;;35.10;16.60;;;;;;;0.38;92.89;96972.70;135614;1275;24180;-83
2024/01/15 00:05:41;;;;;;;34.40;16.40;;;;;;;0.37;92.95;96970.98;135651;1275;22548;-82
2024/01/15 00:08:43;;;;;;;30.40;16.00;;;;;;;0.36;93.16;96964.11;135829;1275;22563;-82
2024/01/15 00:11:46;;;;;;;33.70;16.80;;;;;;;0.39;93.19;96957.14;135702;1271;23315;-81
2024/01/15 00:14:48;;;;;;;31.00;16.30;;;;;;;0.37;93.45;96947.52;135718;1275;22595;-82
2024/01/15 00:17:51;;;;;;;36.20;17.70;;;;;;;0.37;93.13;96943.25;135291;1271;22597;-80
2024/01/15 00:20:53;;;;;;;31.40;16.30;;;;;;;0.38;93.01;96946.70;135677;1275;22539;-81
2024/01/15 00:23:56;;;;;;;30.40;17.30;;;;;;;0.40;93.26;96932.71;135553;1275;25397;-82
2024/01/15 00:26:59;;;;;;;33.80;16.60;;;;;;;0.40;93.27;96925.88;135536;1275;22552;-83
2024/01/15 00:30:02;;;;;;;37.50;17.60;;;;;;;0.40;93.57;96922.10;135594;1275;22540;-82
2024/01/15 00:33:05;;;;;;;32.10;17.10;;;;;;;0.38;93.43;96904.26;135590;1275;22556;-83
2024/01/15 00:36:07;;;;;;;33.80;16.80;;;;;;;0.34;93.55;96901.27;135543;1275;23141;-83
2024/01/15 00:39:10;;;;;;;38.80;17.30;;;;;;;0.28;94.19;96905.95;135538;1275;24204;-83
2024/01/15 00:42:13;;;;;;;34.40;17.10;;;;;;;0.26;94.26;96905.90;135564;1275;22543;-84
2024/01/15 00:45:15;;;;;;;32.30;17.30;;;;;;;0.20;94.49;96903.88;135583;1275;22559;-84
2024/01/15 00:48:18;;;;;;;33.90;16.90;;;;;;;0.13;94.29;96892.80;135557;1275;22945;-84
2024/01/15 00:51:20;;;;;;;31.50;16.40;;;;;;;0.08;94.15;96884.30;135577;1275;25247;-84
2024/01/15 00:54:23;;;;;;;30.80;15.70;;;;;;;-0.00;94.48;96876.92;135558;1275;22554;-83
2024/01/15 00:57:25;;;;;;;31.20;15.70;;;;;;;-0.09;94.65;96869.02;135571;1270;23012;-83
2024/01/15 01:00:28;;;;;;;28.70;15.00;;;;;;;-0.16;94.81;96869.73;135559;1275;22542;-83
2024/01/15 01:03:30;;;;;;;31.90;15.70;;;;;;;-0.21;94.91;96877.48;135562;1275;22539;-82
2024/01/15 01:06:33;;;;;;;28.60;14.70;;;;;;;-0.21;95.18;96883.64;135579;1274;25414;-83
2024/01/15 01:09:36;;;;;;;31.20;16.00;;;;;;;-0.20;94.92;96879.56;135584;1275;24406;-84
2024/01/15 01:12:38;;;;;;;31.00;15.30;;;;;;;-0.16;94.76;96877.09;136348;1275;22542;-81
2024/01/15 01:15:42;;;;;;;27.70;14.30;;;;;;;-0.10;94.83;96869.69;136092;1275;22541;-82
2024/01/15 01:18:45;;;;;;;30.90;14.90;;;;;;;-0.05;94.62;96861.42;135716;1275;22547;-82
2024/01/15 01:21:47;;;;;;;25.80;13.40;;;;;;;-0.01;94.17;96857.58;135596;1274;24223;-82
2024/01/15 01:24:50;;;;;;;32.40;16.60;;;;;;;0.01;94.14;96855.09;135539;1275;25410;-83
2024/01/15 01:27:52;;;;;;;30.20;14.50;;;;;;;0.03;93.97;96851.36;135526;1275;22548;-82
2024/01/15 01:30:55;;;;;;;31.20;14.40;;;;;;;0.04;93.89;96847.27;135520;1275;24331;-83
2024/01/15 01:33:57;;;;;;;28.70;14.10;;;;;;;0.05;93.68;96849.53;135560;1275;24174;-79
2024/01/15 01:37:00;;;;;;;25.90;14.00;;;;;;;0.07;93.93;96846.65;135556;1275;22553;-83
2024/01/15 01:40:02;;;;;;;29.10;13.90;;;;;;;0.10;93.73;96837.48;135568;1275;22550;-83
2024/01/15 01:43:05;;;;;;;24.90;13.70;;;;;;;0.09;93.41;96839.02;135562;1275;22937;-83
2024/01/15 01:46:08;;;;;;;25.50;14.50;;;;;;;0.08;93.66;96835.39;135420;1275;166150;-83
2024/01/15 01:49:11;;;;;;;24.10;13.10;;;;;;;0.07;93.59;96830.58;135559;1275;22554;-83
2024/01/15 01:52:13;;;;;;;24.60;13.00;;;;;;;0.07;93.83;96830.06;135567;1275;22550;-83
2024/01/15 01:55:16;;;;;;;23.80;13.60;;;;;;;0.07;93.62;96823.23;135571;1275;22595;-83
2024/01/15 01:58:18;;;;;;;24.70;12.60;;;;;;;0.07;93.44;96816.90;135589;1275;22555;-83
2024/01/15 02:01:21;;;;;;;25.00;13.40;;;;;;;0.06;93.32;96815.85;135530;1275;22530;-84
2024/01/15 02:04:23;;;;;;;24.30;12.90;;;;;;;0.04;93.55;96808.28;135545;1275;24213;-84
2024/01/15 02:07:26;;;;;;;21.20;12.10;;;;;;;0.03;93.42;96803.30;135546;1275;22568;-84
2024/01/15 02:10:28;;;;;;;25.60;12.60;;;;;;;0.02;93.57;96796.27;135534;1275;22570;-85
2024/01/15 02:13:31;;;;;;;24.80;12.30;;;;;;;0.02;93.78;96793.71;135578;1275;22544;-82
2024/01/15 02:16:33;;;;;;;20.60;12.00;;;;;;;0.02;93.90;96787.91;135573;1275;22544;-83
2024/01/15 02:19:36;;;;;;;20.10;11.90;;;;;;;0.01;93.76;96790.10;135562;1275;25943;-83
2024/01/15 02:22:38;;;;;;;20.60;11.60;;;;;;;-0.01;94.21;96790.57;135583;1275;24236;-82
2024/01/15 02:25:41;;;;;;;22.20;12.30;;;;;;;-0.02;94.04;96792.74;135576;1275;22552;-82
2024/01/15 02:28:44;;;;;;;21.90;11.30;;;;;;;-0.04;94.25;96783.81;135563;1275;22650;-83
2024/01/15 02:31:46;;;;;;;19.00;11.90;;;;;;;-0.06;94.41;96780.02;135521;1275;22556;-84
2024/01/15 02:34:49;;;;;;;25.10;12.00;;;;;;;-0.06;94.67;96777.28;135593;1275;22555;-82
2024/01/15 02:37:51;;;;;;;22.50;11.40;;;;;;;-0.06;95.09;96774.20;135545;1275;25240;-83
2024/01/15 02:40:54;;;;;;;18.70;11.30;;;;;;;-0.09;95.13;96771.06;135541;1274;22653;-82
2024/01/15 02:43:56;;;;;;;19.50;11.40;;;;;;;-0.12;95.42;96761.95;135550;1275;22555;-82
2024/01/15 02:46:59;;;;;;;20.00;11.00;;;;;;;-0.11;96.25;96755.80;135568;1275;23072;-84
2024/01/15 02:50:01;;;;;;;18.80;11.00;;;;;;;-0.10;96.42;96748.15;135555;1275;25109;-83
2024/01/15 02:53:03;;;;;;;20.60;11.20;;;;;;;-0.08;96.37;96746.98;135554;1275;22626;-83
2024/01/15 02:56:06;;;;;;;19.70;11.50;;;;;;;-0.05;96.35;96743.80;135561;1266;22550;-84
2024/01/15 02:59:08;;;;;;;19.20;10.60;;;;;;;-0.04;96.19;96742.42;135538;1274;23164;-84
2024/01/15 03:02:11;;;;;;;21.90;11.50;;;;;;;-0.04;96.25;96734.91;135498;1275;22538;-82
2024/01/15 03:05:13;;;;;;;19.40;11.00;;;;;;;-0.04;96.19;96727.41;135532;1275;22539;-83
2024/01/15 03:08:17;;;;;;;20.30;11.50;;;;;;;-0.02;96.21;96724.70;135508;1275;22549;-83
2024/01/15 03:11:19;;;;;;;19.80;11.50;;;;;;;0.02;95.83;96718.98;135512;1275;22559;-83
2024/01/15 03:14:24;;;;;;;19.10;11.50;;;;;;;0.01;96.48;96714.68;135515;1275;24308;-82
2024/01/15 03:17:26;;;;;;;19.20;10.70;;;;;;;-0.02;96.91;96709.32;135561;1275;24452;-84
2024/01/15 03:20:31;;;;;;;22.00;12.50;;;;;;;-0.03;97.26;96711.86;135512;1275;22539;-83
2024/01/15 03:23:34;;;;;;;19.50;11.60;;;;;;;-0.02;96.99;96707.42;135518;1275;22551;-82
2024/01/15 03:26:36;;;;;;;17.60;11.50;;;;;;;-0.07;97.48;96700.52;135499;1275;22650;-82
2024/01/15 03:29:39;;;;;;;20.50;12.10;;;;;;;-0.13;97.51;96702.61;135506;1275;22983;-82
2024/01/15 03:32:41;;;;;;;20.10;11.90;;;;;;;-0.15;97.37;96700.86;135512;1274;22539;-81
2024/01/15 03:35:44;;;;;;;22.30;12.20;;;;;;;-0.15;97.49;96696.91;135529;1261;22540;-81
2024/01/15 03:38:46;;;;;;;18.20;11.60;;;;;;;-0.18;97.20;96689.17;135579;1275;25253;-82
2024/01/15 03:41:49;;;;;;;19.20;11.50;;;;;;;-0.21;97.22;96681.59;136104;1275;22572;-80
2024/01/15 03:44:54;;;;;;;18.10;11.10;;;;;;;-0.20;96.94;96677.84;136485;1275;22540;-81
2024/01/15 03:47:57;;;;;;;19.30;10.70;;;;;;;-0.18;96.51;96676.87;136079;1275;24172;-82
2024/01/15 03:50:59;;;;;;;21.50;10.80;;;;;;;-0.18;96.20;96678.06;135741;1275;23119;-82
2024/01/15 03:54:02;;;;;;;18.10;11.30;;;;;;;-0.19;95.42;96674.29;135982;1275;22553;-82
2024/01/15 03:57:04;;;;;;;18.60;10.80;;;;;;;-0.18;95.11;96674.30;135733;1275;25074;-81
2024/01/15 04:00:07;;;;;;;16.50;10.30;;;;;;;-0.17;95.03;96666.46;135731;1274;22543;-81
2024/01/15 04:03:09;;;;;;;19.50;11.00;;;;;;;-0.14;94.47;96666.17;135720;1275;24282;-82
2024/01/15 04:06:12;;;;;;;18.80;10.50;;;;;;;-0.12;94.15;96662.61;135645;1275;22540;-83
2024/01/15 04:09:14;;;;;;;13.50;9.00;;;;;;;-0.10;94.12;96654.96;135523;1275;23018;-83
2024/01/15 04:12:17;;;;;;;13.90;9.50;;;;;;;-0.07;93.86;96657.08;135574;1274;22526;-84
2024/01/15 04:15:19;;;;;;;15.60;9.80;;;;;;;-0.05;93.45;96658.98;135562;1275;22556;-83
2024/01/15 04:18:22;;;;;;;15.40;9.10;;;;;;;-0.04;93.12;96651.48;135587;1275;22640;-84
2024/01/15 04:21:24;;;;;;;12.70;8.30;;;;;;;-0.02;92.98;96643.64;135589;1275;22652;-83
2024/01/15 04:24:26;;;;;;;16.30;10.30;;;;;;;-0.03;92.76;96641.77;135589;1271;24289;-84
2024/01/15 04:27:29;;;;;;;14.80;8.50;;;;;;;-0.03;93.42;96641.59;135583;1275;22501;-83
2024/01/15 04:30:31;;;;;;;16.50;9.10;;;;;;;0.61;99.09;96633.77;135543;1275;22611;-83
2024/01/15 04:33:34;;;;;;;14.60;8.30;;;;;;;0.54;92.10;96633.67;135606;1275;22584;-82
2024/01/15 04:36:36;;;;;;;19.30;9.50;;;;;;;0.36;91.81;96637.14;135689;1275;22564;-82
2024/01/15 04:39:39;;;;;;;21.50;9.40;;;;;;;0.37;95.04;96639.71;135740;1275;22583;-83
2024/01/15 04:42:41;;;;;;;11.20;8.00;;;;;;;0.83;96.02;96640.77;135822;1275;22564;-79
2024/01/15 04:45:44;;;;;;;9.60;7.40;;;;;;;0.64;94.21;96635.70;135253;1275;22562;-77
2024/01/15 04:48:46;;;;;;;13.40;8.30;;;;;;;0.69;91.63;96631.66;135289;1275;22581;-79
2024/01/15 04:51:49;;;;;;;13.80;8.60;;;;;;;0.49;90.58;96632.73;135123;1275;25009;-80
2024/01/15 04:54:51;;;;;;;12.90;8.10;;;;;;;0.34;90.95;96638.65;135213;1275;22649;-80
2024/01/15 04:57:54;;;;;;;13.30;8.40;;;;;;;0.25;90.95;96635.42;135277;1275;22743;-79
2024/01/15 05:00:56;;;;;;;14.60;8.70;;;;;;;0.20;91.23;96625.93;135229;1275;22543;-80
2024/01/15 05:03:59;;;;;;;26.70;9.60;;;;;;;0.17;91.41;96623.65;135343;1275;22540;-79
2024/01/15 05:07:01;;;;;;;22.00;10.60;;;;;;;0.15;91.47;96621.05;134917;1275;22558;-79
2024/01/15 05:10:04;;;;;;;19.20;9.90;;;;;;;0.13;91.65;96623.42;135065;1275;24533;-79
2024/01/15 05:13:06;;;;;;;15.50;8.40;;;;;;;0.12;91.48;96626.30;135309;1275;25226;-80
2024/01/15 05:16:09;;;;;;;15.40;8.00;;;;;;;0.12;91.45;96622.89;135206;1275;22566;-77
2024/01/15 05:19:11;;;;;;;14.50;8.00;;;;;;;0.12;91.22;96617.74;135121;1275;24214;-78
2024/01/15 05:22:13;;;;;;;13.30;7.50;;;;;;;0.10;91.24;96609.00;135069;1275;23259;-79
2024/01/15 05:25:16;;;;;;;13.90;7.90;;;;;;;0.08;91.19;96609.13;134922;1275;23073;-80
2024/01/15 05:28:18;;;;;;;11.30;7.30;;;;;;;0.05;91.29;96611.81;134923;1271;24912;-78
2024/01/15 05:31:21;;;;;;;13.70;6.90;;;;;;;0.03;91.81;96614.86;134922;1275;22615;-79
2024/01/15 05:34:23;;;;;;;15.40;7.50;;;;;;;-0.02;100.00;96615.63;134719;1275;22495;-79
2024/01/15 05:37:26;;;;;;;12.80;7.20;;;;;;;-0.08;100.00;96611.57;134838;1275;22669;-79
2024/01/15 05:40:28;;;;;;;14.00;8.10;;;;;;;-0.15;100.00;96605.81;134803;1275;26024;-80
2024/01/15 05:43:31;;;;;;;9.10;6.60;;;;;;;-0.17;100.00;96609.88;134787;1275;23002;-80
2024/01/15 05:46:34;;;;;;;12.20;7.80;;;;;;;-0.15;100.00;96604.26;134883;1275;22552;-80
2024/01/15 05:49:37;;;;;;;13.50;7.60;;;;;;;-0.13;100.00;96614.05;134932;1275;22940;-79
2024/01/15 05:52:39;;;;;;;12.20;7.60;;;;;;;-0.11;100.00;96615.27;134836;1275;24309;-79
2024/01/15 05:55:42;;;;;;;13.60;7.20;;;;;;;-0.07;99.93;96615.17;134949;1275;22533;-80
2024/01/15 05:58:44;;;;;;;14.90;7.10;;;;;;;-0.06;99.06;96613.66;134889;1275;22629;-79
2024/01/15 06:01:47;;;;;;;13.80;7.30;;;;;;;-0.07;99.31;96606.13;134951;1275;24202;-79
2024/01/15 06:04:49;;;;;;;12.00;7.50;;;;;;;-0.08;99.51;96606.79;135084;1275;22638;-78
2024/01/15 06:07:52;;;;;;;10.10;7.30;;;;;;;-0.09;99.51;96606.27;135142;1275;25471;-79
2024/01/15 06:10:54;;;;;;;12.70;7.40;;;;;;;-0.12;99.66;96605.86;135190;1275;22632;-78
2024/01/15 06:13:57;;;;;;;14.80;7.90;;;;;;;-0.16;99.89;96605.29;135947;1275;25774;-79
2024/01/15 06:16:59;;;;;;;13.20;7.50;;;;;;;-0.17;99.99;96606.79;135565;1275;22604;-78
2024/01/15 06:20:03;;;;;;;11.80;7.50;;;;;;;-0.18;99.87;96598.91;135157;1272;22552;-78
2024/01/15 06:23:05;;;;;;;15.00;8.00;;;;;;;-0.19;99.74;96597.87;134980;1275;22541;-78
2024/01/15 06:26:08;;;;;;;13.30;7.00;;;;;;;-0.21;99.11;96601.95;134882;1275;25176;-79
2024/01/15 06:29:10;;;;;;;12.10;7.30;;;;;;;-0.23;98.80;96606.00;135013;1275;22559;-79
2024/01/15 06:32:13;;;;;;;15.20;7.80;;;;;;;-0.23;98.83;96598.48;134874;1275;24171;-77
2024/01/15 06:35:15;;;;;;;11.00;7.00;;;;;;;-0.21;98.28;96592.90;134803;1275;22570;-79
2024/01/15 06:38:18;;;;;;;14.80;7.90;;;;;;;-0.20;96.99;96597.87;134728;1275;22553;-79
2024/01/15 06:41:20;;;;;;;13.30;8.00;;;;;;;-0.18;96.51;96604.38;134856;1275;22566;-78
2024/01/15 06:44:23;;;;;;;13.60;7.60;;;;;;;-0.17;96.13;96602.53;134845;1274;23091;-79
2024/01/15 06:47:25;;;;;;;13.20;7.50;;;;;;;-0.13;96.15;96608.41;135003;1275;22609;-81
2024/01/15 06:50:28;;;;;;;13.80;7.50;;;;;;;-0.10;96.31;96609.15;135161;1274;25978;-78
2024/01/15 06:53:31;;;;;;;11.70;7.40;;;;;;;-0.06;96.68;96613.83;135059;1275;25414;-79
2024/01/15 06:56:33;;;;;;;12.30;8.10;;;;;;;-0.05;96.64;96611.97;135156;1274;22559;-79
2024/01/15 06:59:36;;;;;;;13.30;8.10;;;;;;;-0.07;97.31;96605.77;135044;1275;22576;-79
2024/01/15 07:02:38;;;;;;;17.50;9.00;;;;;;;-0.09;97.25;96608.48;134982;1264;22541;-78
2024/01/15 07:05:41;;;;;;;11.60;7.90;;;;;;;-0.09;96.92;96607.11;134904;1273;23084;-79
2024/01/15 07:08:43;;;;;;;12.50;8.00;;;;;;;-0.05;96.93;96609.59;135218;1274;25031;-80
2024/01/15 07:11:47;;;;;;;12.60;8.20;;;;;;;-0.01;96.45;96611.02;135043;1275;22629;-80
2024/01/15 07:14:49;;;;;;;14.70;8.00;;;;;;;0.04;96.05;96610.78;134991;1274;25288;-77
2024/01/15 07:17:52;;;;;;;11.90;8.00;;;;;;;0.10;95.84;96612.08;135050;1273;22606;-80
2024/01/15 07:20:54;;;;;;;9.70;7.20;;;;;;;0.20;95.09;96613.27;135056;1274;22661;-79
2024/01/15 07:23:57;;;;;;;11.70;7.50;;;;;;;0.25;93.79;96621.22;135052;1263;22653;-80
2024/01/15 07:26:59;;;;;;;13.40;7.80;;;;;;;0.35;93.63;96621.39;135110;1255;23043;-82
2024/01/15 07:30:04;;;;;;;12.30;7.20;;;;;;;0.52;92.58;96616.17;136332;1275;22562;-81
2024/01/15 07:33:06;;;;;;;14.20;8.40;;;;;;;0.64;91.72;96617.04;135252;1274;22560;-78
2024/01/15 07:36:08;;;;;;;12.70;8.40;;;;;;;0.72;91.08;96618.52;135147;1274;25301;-81
2024/01/15 07:39:11;;;;;;;14.30;8.50;;;;;;;0.82;90.57;96621.23;136346;1274;22516;-81
2024/01/15 07:42:13;;;;;;;12.70;7.70;;;;;;;0.93;89.89;96624.86;134779;1274;22557;-81
2024/01/15 07:45:16;;;;;;;16.80;9.10;;;;;;;1.00;88.74;96630.25;136659;1275;22558;-79
2024/01/15 07:48:18;;;;;;;12.00;7.50;;;;;;;1.01;88.58;96634.55;134844;1274;22652;-80
2024/01/15 07:51:21;;;;;;;13.70;7.90;;;;;;;0.95;88.35;96640.12;134924;1274;22535;-80
2024/01/15 07:54:24;;;;;;;13.40;8.50;;;;;;;0.84;91.98;96637.54;134891;1274;23599;-80
2024/01/15 07:57:26;;;;;;;12.30;7.40;;;;;;;0.73;100.00;96641.83;135070;1274;22697;-79
2024/01/15 08:00:29;;;;;;;12.40;8.00;;;;;;;0.72;100.00;96651.74;135117;1274;23092;-80
2024/01/15 08:03:31;;;;;;;13.00;8.20;;;;;;;0.69;100.00;96652.89;136789;1274;22526;-80
2024/01/15 08:06:34;;;;;;;16.40;8.80;;;;;;;0.76;100.00;96655.73;136581;1274;22540;-80
2024/01/15 08:09:37;;;;;;;16.10;8.00;;;;;;;0.87;100.00;96652.48;135301;1275;22529;-80
2024/01/15 08:12:39;;;;;;;23.00;12.30;;;;;;;0.85;100.00;96647.82;135116;1274;24165;-79
2024/01/15 08:15:42;;;;;;;15.90;9.60;;;;;;;0.86;100.00;96652.14;134977;1275;22713;-82
2024/01/15 08:18:44;;;;;;;12.50;7.90;;;;;;;0.91;100.00;96650.17;136748;1274;22591;-80
2024/01/15 08:21:49;;;;;;;14.10;8.70;;;;;;;0.93;100.00;96652.08;136738;1275;22598;-80
2024/01/15 08:24:53;;;;;;;16.00;10.10;;;;;;;0.91;100.00;96655.98;136790;1275;22507;-79
2024/01/15 08:27:56;;;;;;;21.60;10.30;;;;;;;0.85;100.00;96649.20;136757;1275;22543;-80
2024/01/15 08:31:09;;;;;;;13.70;8.40;;;;;;;0.84;100.00;96651.58;136455;1275;22577;-80
2024/01/15 08:34:12;;;;;;;11.30;7.60;;;;;;;0.89;100.00;96655.61;134967;1275;22581;-80
2024/01/15 08:37:14;;;;;;;11.90;7.50;;;;;;;0.91;100.00;96660.61;134875;1275;22589;-81
2024/01/15 08:40:17;;;;;;;23.50;10.50;;;;;;;0.93;100.00;96666.45;136718;1275;22567;-79
2024/01/15 08:43:19;;;;;;;18.40;9.90;;;;;;;0.88;100.00;96662.61;135027;1275;22852;-80
2024/01/15 08:46:25;;;;;;;13.10;8.30;;;;;;;0.84;100.00;96664.59;135009;1275;22589;-80
2024/01/15 08:49:27;;;;;;;14.40;8.40;;;;;;;0.83;100.00;96666.45;135437;1275;22577;-79
2024/01/15 08:52:30;;;;;;;14.90;9.10;;;;;;;0.95;100.00;96663.06;135340;1275;22573;-80
2024/01/15 08:55:59;;;;;;;18.30;10.00;;;;;;;1.06;100.00;96663.73;135095;1275;23593;-79
2024/01/15 08:59:02;;;;;;;25.50;11.90;;;;;;;1.11;100.00;96660.03;135149;1275;22568;-79
2024/01/15 09:02:04;;;;;;;17.50;10.20;;;;;;;1.24;100.00;96666.20;134880;1275;22612;-80
2024/01/15 09:05:07;;;;;;;15.90;9.30;;;;;;;1.40;100.00;96668.29;134909;1275;23052;-80
2024/01/15 09:08:10;;;;;;;18.90;10.00;;;;;;;1.59;100.00;96670.75;134916;1275;25377;-80
2024/01/15 09:11:13;;;;;;;18.80;10.50;;;;;;;1.71;100.00;96671.59;134861;1275;22561;-79
2024/01/15 09:14:15;;;;;;;14.30;9.70;;;;;;;1.73;100.00;96665.27;134709;1264;23473;-79
2024/01/15 09:17:18;;;;;;;15.60;10.30;;;;;;;1.84;100.00;96664.91;134785;1275;22530;-81
2024/01/15 09:20:20;;;;;;;19.50;10.00;;;;;;;2.03;100.00;96666.31;134661;1275;23281;-81
2024/01/15 09:23:23;;;;;;;19.60;10.20;;;;;;;2.49;100.00;96661.94;136729;1275;22578;-80
2024/01/15 09:26:28;;;;;;;18.80;11.00;;;;;;;2.85;100.00;96660.19;136537;1275;22996;-81
2024/01/15 09:29:31;;;;;;;16.60;8.50;;;;;;;2.90;100.00;96666.39;136813;1275;23277;-80
2024/01/15 09:32:34;;;;;;;23.50;11.60;;;;;;;2.73;100.00;96668.52;136963;1275;23133;-80
2024/01/15 09:35:36;;;;;;;33.80;15.10;;;;;;;2.64;100.00;96660.21;136770;1275;22605;-80
2024/01/15 09:38:39;;;;;;;21.10;11.00;;;;;;;2.85;100.00;96662.08;136556;1275;22550;-79
2024/01/15 09:41:44;;;;;;;27.90;14.30;;;;;;;2.92;100.00;96662.81;134819;1275;22580;-78
2024/01/15 09:44:49;;;;;;;23.90;11.80;;;;;;;2.90;100.00;96664.17;134603;1275;22961;-79
2024/01/15 09:47:51;;;;;;;11.90;8.40;;;;;;;2.83;100.00;96664.47;134661;1274;25420;-79
2024/01/15 09:50:54;;;;;;;16.30;9.80;;;;;;;2.81;100.00;96658.61;134719;1274;25273;-78
2024/01/15 09:53:56;;;;;;;14.10;8.50;;;;;;;2.72;100.00;96652.88;134661;1274;22592;-79
2024/01/15 09:57:01;;;;;;;14.60;9.20;;;;;;;2.55;100.00;96650.48;134891;1274;22564;-80
2024/01/15 10:00:04;;;;;;;17.10;8.80;;;;;;;2.41;100.00;96648.30;135088;1274;22582;-81
2024/01/15 10:03:07;;;;;;;20.00;9.00;;;;;;;2.27;100.00;96647.84;136101;1274;22563;-79
2024/01/15 10:06:10;;;;;;;18.40;9.50;;;;;;;2.29;100.00;96647.86;135003;1274;25207;-79
2024/01/15 10:09:14;;;;;;;14.60;9.10;;;;;;;2.41;100.00;96647.45;134950;1267;22583;-79
2024/01/15 10:12:16;;;;;;;11.40;7.90;;;;;;;2.53;100.00;96643.42;134943;1274;23236;-81
2024/01/15 10:15:19;;;;;;;13.10;8.20;;;;;;;2.51;100.00;96643.08;136414;1274;27093;-80
2024/01/15 10:18:21;;;;;;;15.60;8.10;;;;;;;2.59;100.00;96640.73;136504;1274;22159;-81
2024/01/15 10:21:26;;;;;;;12.10;8.40;;;;;;;2.63;100.00;96635.46;136487;1274;22578;-81
2024/01/15 10:24:28;;;;;;;16.90;9.50;;;;;;;2.65;100.00;96636.16;136594;1259;22569;-82
2024/01/15 10:27:31;;;;;;;17.40;10.10;;;;;;;2.71;100.00;96629.52;136321;1274;22578;-80
2024/01/15 10:30:41;;;;;;;18.60;10.40;;;;;;;2.69;100.00;96629.33;135650;1274;22669;-82
2024/01/15 10:33:44;;;;;;;11.40;8.00;;;;;;;2.53;100.00;96623.68;136263;1274;22589;-81
2024/01/15 10:36:47;;;;;;;15.80;8.30;;;;;;;2.44;100.00;96621.03;136376;1274;22720;-82
2024/01/15 10:39:52;;;;;;;11.10;7.50;;;;;;;2.46;100.00;96625.69;136684;1274;22589;-82
2024/01/15 10:42:55;;;;;;;;;;;;;;;2.42;100.00;96629.27;136976;1274;22610;-80
2024/01/15 10:45:57;;;;;;;16.80;9.00;;;;;;;2.46;100.00;96632.90;137107;1275;22265;-81
2024/01/15 10:49:00;;;;;;;18.30;9.20;;;;;;;2.51;100.00;96640.66;137089;1275;22600;-82
2024/01/15 10:52:05;;;;;;;16.30;9.00;;;;;;;2.42;100.00;96639.90;136776;1274;22564;-82
2024/01/15 10:55:09;;;;;;;14.70;8.70;;;;;;;2.29;100.00;96640.14;136467;1275;23050;-81
2024/01/15 10:58:13;;;;;;;;;;;;;;;2.21;100.00;96642.63;136527;1267;25230;-83
2024/01/15 11:01:16;;;;;;;15.70;8.20;;;;;;;2.17;100.00;96643.80;136228;1274;25062;-82
2024/01/15 11:04:18;;;;;;;12.30;7.50;;;;;;;2.24;100.00;96639.59;136402;1274;22571;-84
2024/01/15 11:07:21;;;;;;;15.10;7.40;;;;;;;2.30;100.00;96636.88;136204;1274;23059;-84
2024/01/15 11:10:24;;;;;;;10.30;7.20;;;;;;;2.34;100.00;96629.19;136337;1274;24898;-84
2024/01/15 11:13:26;;;;;;;14.30;7.80;;;;;;;2.42;100.00;96632.17;136550;1274;22532;-83
2024/01/15 11:16:29;;;;;;;12.90;7.80;;;;;;;2.45;100.00;96632.73;136311;1274;23463;-84
2024/01/15 11:19:31;;;;;;;16.20;8.90;;;;;;;2.38;100.00;96639.70;136331;1274;22574;-84
2024/01/15 11:22:34;;;;;;;16.00;8.80;;;;;;;2.28;100.00;96645.96;136424;1275;23009;-83
2024/01/15 11:25:38;;;;;;;13.80;9.00;;;;;;;2.22;100.00;96640.94;136658;1264;22569;-83
2024/01/15 11:28:40;;;;;;;18.70;9.30;;;;;;;2.22;100.00;96645.23;136442;1274;22539;-83
2024/01/15 11:31:43;;;;;;;16.20;7.70;;;;;;;2.20;100.00;96645.90;136354;1274;22598;-83
2024/01/15 11:34:46;;;;;;;12.70;8.40;;;;;;;2.11;100.00;96644.77;136398;1274;22564;-83
2024/01/15 11:37:49;;;;;;;17.30;9.10;;;;;;;1.98;100.00;96648.77;136712;1275;22545;-84
2024/01/15 11:40:51;;;;;;;15.40;8.60;;;;;;;1.87;100.00;96645.05;136750;1274;22656;-85
2024/01/15 11:43:54;;;;;;;15.10;8.10;;;;;;;1.79;100.00;96643.59;136773;1274;25371;-84
2024/01/15 11:46:57;;;;;;;12.70;7.50;;;;;;;1.76;100.00;96635.66;136387;1274;22953;-84
2024/01/15 11:49:59;;;;;;;16.90;9.00;;;;;;;1.75;100.00;96627.93;136375;1274;23187;-82
2024/01/15 11:53:02;;;;;;;14.70;8.20;;;;;;;1.77;100.00;96627.80;136440;1275;23505;-84
2024/01/15 11:56:04;;;;;;;15.30;9.50;;;;;;;1.76;100.00;96624.17;136451;1275;22567;-84
2024/01/15 11:59:07;;;;;;;18.20;10.00;;;;;;;1.67;100.00;96626.63;136504;1274;22574;-84
2024/01/15 12:02:11;;;;;;;14.60;8.70;;;;;;;1.63;100.00;96632.58;136453;1274;22570;-83
2024/01/15 12:05:13;;;;;;;16.40;8.70;;;;;;;1.60;100.00;96631.34;136591;1274;22537;-81
2024/01/15 12:08:16;;;;;;;13.20;8.00;;;;;;;1.59;100.00;96626.36;136596;1274;23092;-83
2024/01/15 12:11:21;;;;;;;11.60;7.40;;;;;;;1.51;100.00;96629.54;136444;1274;22527;-84
2024/01/15 12:14:24;;;;;;;13.90;8.50;;;;;;;1.51;100.00;96626.62;136777;1274;22155;-82
2024/01/15 12:17:26;;;;;;;13.00;8.20;;;;;;;1.57;100.00;96626.52;136742;1275;22574;-83
2024/01/15 12:20:29;;;;;;;11.80;8.00;;;;;;;1.65;100.00;96620.26;136719;1274;22143;-81
2024/01/15 12:23:31;;;;;;;15.60;8.00;;;;;;;1.76;100.00;96621.44;136846;1274;22614;-82
2024/01/15 12:26:34;;;;;;;15.60;8.90;;;;;;;1.80;100.00;96622.84;136804;1275;22593;-81
2024/01/15 12:29:37;;;;;;;17.70;9.80;;;;;;;1.80;100.00;96615.64;136912;1275;22552;-82
2024/01/15 12:32:40;;;;;;;14.90;8.90;;;;;;;1.93;100.00;96613.90;136813;1274;22593;-83
2024/01/15 12:35:42;;;;;;;17.10;10.40;;;;;;;2.02;100.00;96612.77;136539;1274;22589;-83
2024/01/15 12:38:45;;;;;;;18.00;10.20;;;;;;;2.06;100.00;96609.05;136918;1274;22709;-84
2024/01/15 12:41:47;;;;;;;15.60;9.70;;;;;;;2.05;100.00;96612.46;136718;1275;24263;-83
2024/01/15 12:44:50;;;;;;;17.80;11.00;;;;;;;1.98;100.00;96606.22;136417;1274;22613;-83
2024/01/15 12:47:53;;;;;;;16.30;10.20;;;;;;;2.01;100.00;96608.14;136545;1267;22553;-83
2024/01/15 12:50:55;;;;;;;21.20;10.90;;;;;;;1.98;100.00;96609.31;136513;1275;22663;-82
2024/01/15 12:54:06;;;;;;;17.20;11.20;;;;;;;1.85;100.00;96613.99;136278;1260;22557;-82
2024/01/15 12:57:09;;;;;;;17.90;10.70;;;;;;;1.69;100.00;96619.27;136202;1275;22583;-78
2024/01/15 13:00:12;;;;;;;15.80;9.90;;;;;;;1.61;100.00;96619.02;136353;1275;22233;-83
2024/01/15 13:03:14;;;;;;;19.40;11.20;;;;;;;1.59;100.00;96611.62;137206;1275;22550;-83
2024/01/15 13:06:17;;;;;;;18.90;11.00;;;;;;;1.53;100.00;96616.52;137002;1275;22576;-79
2024/01/15 13:09:19;;;;;;;17.30;9.60;;;;;;;1.45;100.00;96615.91;137057;1275;22628;-81
2024/01/15 13:12:22;;;;;;;17.40;10.30;;;;;;;1.41;100.00;96622.38;137098;1275;22587;-81
2024/01/15 13:15:24;;;;;;;19.10;10.80;;;;;;;1.40;100.00;96627.16;136895;1275;22638;-83
2024/01/15 13:18:27;;;;;;;17.90;10.10;;;;;;;1.37;100.00;96630.55;137017;1275;22612;-79
2024/01/15 13:21:29;;;;;;;18.90;9.30;;;;;;;1.33;100.00;96635.82;136969;1275;22164;-82
2024/01/15 13:24:32;;;;;;;16.50;8.70;;;;;;;1.35;100.00;96635.84;136909;1274;23030;-81
2024/01/15 13:27:36;;;;;;;18.10;10.40;;;;;;;1.34;100.00;96634.29;136904;1275;22562;-81
2024/01/15 13:30:38;;;;;;;16.60;10.10;;;;;;;1.29;100.00;96643.30;137002;1274;22847;-81
2024/01/15 13:33:41;;;;;;;20.10;11.00;;;;;;;1.20;100.00;96646.12;137005;1263;22533;-82
2024/01/15 13:36:43;;;;;;;19.30;11.50;;;;;;;1.19;100.00;96638.23;136836;1275;22532;-81
2024/01/15 13:39:46;;;;;;;17.70;10.30;;;;;;;1.18;100.00;96635.64;136829;1274;22530;-81
2024/01/15 13:42:48;;;;;;;18.70;10.50;;;;;;;1.19;100.00;96645.06;136797;1275;22619;-82
2024/01/15 13:45:52;;;;;;;18.00;11.40;;;;;;;1.22;100.00;96640.48;136600;1274;201896;-81
2024/01/15 13:48:55;;;;;;;21.10;10.80;;;;;;;1.22;100.00;96644.59;136843;1275;22961;-83
2024/01/15 13:51:58;;;;;;;19.20;10.40;;;;;;;1.18;100.00;96641.28;136609;1275;22635;-83
2024/01/15 13:55:01;;;;;;;18.60;10.80;;;;;;;1.15;100.00;96642.11;136569;1275;22526;-82
2024/01/15 13:58:05;;;;;;;20.20;10.80;;;;;;;1.17;100.00;96634.58;136546;1275;22562;-82
2024/01/15 14:01:08;;;;;;;19.00;10.70;;;;;;;1.15;100.00;96639.54;136637;1275;22665;-81